CheckWX is a tool to help pilots better visualize weather data.  It is not intended as a substitute for an official pre-flight weather briefing.

23:25:45 UTC

KLTS METAR
Altus Air Force Base
Altus, Oklahoma, USA
Current

30 mins ago

KLTS 142256Z AUTO 16019G23KT 10SM CLR 43/12 A2970 RMK AO2 SLP036 T04270115 $
Observed
Jul-14 @ 22:56 UTC
Wind
  • 160° at 19 KTS
  • Gusting to 23 KTS
Visibility
10 SM
Flight Rules
VFR
Cloud Levels
  • Clear skies
Temperature
43°C / 109°F
Dewpoint
12°C / 54°F
Humidity
16%
Altimeter
29.7" Hg
Pressure
1005.72 hPa
Previous

1 hour ago

KLTS 142156Z AUTO 16014G21KT 10SM CLR 44/11 A2972 RMK AO2 SLP042 T04350112 $
Observed
Jul-14 @ 21:56 UTC
Wind
  • 160° at 14 KTS
  • Gusting to 21 KTS
Visibility
10 SM
Flight Rules
VFR
Cloud Levels
  • Clear skies
Temperature
44°C / 111°F
Dewpoint
11°C / 52°F
Humidity
14%
Altimeter
29.72" Hg
Pressure
1006.42 hPa
Previous

2 hours ago

KLTS 142145Z AUTO 16017G23KT 10SM CLR 44/11 A2972 RMK AO2 WSHFT 31 SLP042 $
Observed
Jul-14 @ 21:45 UTC
Wind
  • 160° at 17 KTS
  • Gusting to 23 KTS
Visibility
10 SM
Flight Rules
VFR
Cloud Levels
  • Clear skies
Temperature
44°C / 111°F
Dewpoint
11°C / 52°F
Humidity
14%
Altimeter
29.72" Hg
Pressure
1006.42 hPa